Time;durP1;ratioP1;P1;durP2;ratioP2;P2;SDS_P1;SDS_P2;PMS_P1;PMS_P2;Temp;Humidity;BMP_temperature;BMP_pressure;BME280_temperature;BME280_humidity;BME280_pressure;Samples;Min_cycle;Max_cycle;Signal;HPM_P1;HPM_P2
2022/10/07 15:08:45;;;;;;;15.00;8.30;;;;;;;20.48;42.22;100349.79;30894;1331;3012909;-67
2022/10/07 15:11:15;;;;;;;9.80;5.90;;;;;;;20.33;42.05;100351.85;24556;1342;3026267;-67
2022/10/07 15:13:48;;;;;;;6.40;3.90;;;;;;;20.22;41.97;100352.58;24485;1339;3028078;-71
2022/10/07 15:16:18;;;;;;;;;;;;;;;20.05;42.00;100348.23;24610;1337;3056058;-67
2022/10/07 15:18:56;;;;;;;5.80;2.60;;;;;;;19.84;42.31;100352.62;24542;1346;3054141;-69
2022/10/07 15:21:28;;;;;;;5.60;2.90;;;;;;;19.72;42.39;100353.04;23911;1336;4251721;-67
2022/10/07 15:23:57;;;;;;;6.00;2.70;;;;;;;19.62;42.71;100353.79;24594;1326;3056282;-66
2022/10/07 15:26:26;;;;;;;4.50;2.30;;;;;;;19.54;42.94;100356.55;24611;1329;3029819;-69
2022/10/07 15:28:56;;;;;;;7.50;2.40;;;;;;;19.44;42.93;100356.33;24808;1327;3026806;-70
2022/10/07 15:31:28;;;;;;;6.80;2.60;;;;;;;19.40;43.09;100356.65;24752;1333;3056170;-69
2022/10/07 15:33:57;;;;;;;5.60;2.60;;;;;;;19.34;43.03;100360.03;24712;1333;3028245;-67
2022/10/07 15:36:29;;;;;;;7.40;2.50;;;;;;;19.22;43.28;100363.48;24590;1340;3027916;-68
2022/10/07 15:39:01;;;;;;;4.70;2.20;;;;;;;19.15;43.21;100363.19;24643;1334;3026568;-71
2022/10/07 15:41:40;;;;;;;6.30;2.90;;;;;;;19.00;43.62;100365.84;24667;1329;3025973;-65
2022/10/07 15:44:14;;;;;;;6.20;4.00;;;;;;;18.93;43.67;100361.76;24658;1335;3049573;-71
2022/10/07 15:46:44;;;;;;;8.40;4.30;;;;;;;18.79;43.63;100360.35;24614;1334;3068719;-71
2022/10/07 15:49:15;;;;;;;10.00;4.80;;;;;;;18.69;43.90;100366.48;24646;1340;3025491;-67
2022/10/07 15:51:47;;;;;;;8.30;4.10;;;;;;;18.63;44.11;100366.84;24553;1336;3026373;-70
2022/10/07 15:54:16;;;;;;;9.80;2.70;;;;;;;18.51;44.22;100374.51;24678;1320;3027030;-68
2022/10/07 15:56:48;;;;;;;5.40;3.00;;;;;;;18.43;44.50;100370.68;24570;1337;3026716;-69
2022/10/07 15:59:17;;;;;;;4.30;2.30;;;;;;;18.34;44.48;100368.39;24693;1335;3057135;-67
2022/10/07 16:01:50;;;;;;;8.50;3.10;;;;;;;18.29;44.53;100371.58;24664;1334;3027888;-63
2022/10/07 16:04:19;;;;;;;7.30;4.00;;;;;;;18.22;44.86;100375.02;24693;1340;3026687;-68
2022/10/07 16:06:50;;;;;;;11.20;5.90;;;;;;;18.13;44.88;100376.02;24780;1332;3026490;-72
2022/10/07 16:09:20;;;;;;;12.80;5.20;;;;;;;18.11;44.88;100379.77;24707;1323;3051222;-69
2022/10/07 16:11:49;;;;;;;8.30;3.90;;;;;;;18.03;45.37;100379.86;24718;1334;3029359;-69
2022/10/07 16:14:18;;;;;;;4.20;2.90;;;;;;;17.96;45.44;100381.59;24630;1331;3026093;-69
2022/10/07 16:16:49;;;;;;;5.90;3.10;;;;;;;17.91;45.74;100383.39;24581;1334;3054595;-67
2022/10/07 16:19:18;;;;;;;5.00;2.40;;;;;;;17.87;45.92;100379.27;24566;1334;3028949;-68
2022/10/07 16:21:48;;;;;;;6.60;2.50;;;;;;;17.76;46.01;100379.37;24685;1337;3055398;-68
2022/10/07 16:24:20;;;;;;;10.50;2.50;;;;;;;17.69;46.29;100378.84;24673;1340;3026042;-71
2022/10/07 16:26:51;;;;;;;4.60;2.40;;;;;;;17.65;46.62;100381.48;24630;1334;3049435;-71
2022/10/07 16:32:11;;;;;;;4.60;2.50;;;;;;;17.59;46.30;100383.84;24689;1326;3068589;-71
2022/10/07 16:34:43;;;;;;;8.90;3.30;;;;;;;17.57;46.63;100380.48;24659;1333;3026154;-69
2022/10/07 16:37:14;;;;;;;7.80;3.50;;;;;;;17.54;46.70;100388.15;24656;1327;3027171;-66
2022/10/07 16:39:43;;;;;;;8.20;4.00;;;;;;;17.49;46.82;100387.81;24695;1330;3027787;-69
2022/10/07 16:42:14;;;;;;;9.00;4.90;;;;;;;17.40;46.83;100388.31;24654;1330;3027499;-69
2022/10/07 16:44:44;;;;;;;11.70;6.00;;;;;;;17.34;46.97;100390.17;24643;1337;3028224;-69
2022/10/07 16:47:13;;;;;;;12.70;6.50;;;;;;;17.30;46.93;100390.27;24563;1332;3028018;-67
2022/10/07 16:49:43;;;;;;;12.50;6.00;;;;;;;17.24;47.28;100392.45;24683;1337;3027435;-69
2022/10/07 16:52:12;;;;;;;11.40;5.70;;;;;;;17.21;47.11;100393.42;24776;1333;3026531;-72
2022/10/07 16:54:42;;;;;;;7.90;5.60;;;;;;;17.17;47.30;100393.05;24896;1338;3052687;-70
2022/10/07 16:57:12;;;;;;;10.60;5.50;;;;;;;17.13;47.58;100394.04;24625;1340;3026762;-70
2022/10/07 16:59:41;;;;;;;10.90;4.90;;;;;;;17.06;47.84;100393.23;24650;1330;3025700;-69
2022/10/07 17:02:10;;;;;;;11.80;5.40;;;;;;;17.01;47.99;100393.41;24624;1331;3029839;-68
2022/10/07 17:04:40;;;;;;;4.90;3.40;;;;;;;16.91;48.35;100389.59;24700;1334;3048483;-70
2022/10/07 17:07:13;;;;;;;9.90;4.10;;;;;;;16.86;48.46;100391.31;24644;1333;3026525;-71
2022/10/07 17:09:42;;;;;;;12.50;4.10;;;;;;;16.79;48.64;100390.72;24676;1334;3026582;-67
2022/10/07 17:13:02;;;;;;;8.00;4.20;;;;;;;16.77;48.76;100387.70;31102;1337;3013103;-66
2022/10/07 17:15:32;;;;;;;6.70;3.60;;;;;;;16.70;48.84;100391.36;24675;1340;3028726;-71
2022/10/07 17:18:01;;;;;;;9.40;3.90;;;;;;;16.63;48.92;100397.02;24765;1339;3027322;-68
2022/10/07 17:20:30;;;;;;;8.80;3.60;;;;;;;16.56;49.30;100394.51;25013;1336;3049000;-66
2022/10/07 17:22:59;;;;;;;9.90;3.70;;;;;;;16.55;49.13;100399.34;24511;1330;3029025;-68
2022/10/07 17:25:29;;;;;;;9.90;4.40;;;;;;;16.53;49.24;100393.86;23793;1337;4151426;-66
2022/10/07 17:27:58;;;;;;;11.00;4.80;;;;;;;16.46;49.67;100389.95;24579;1337;3027489;-69
2022/10/07 17:30:29;;;;;;;10.30;4.90;;;;;;;16.29;50.15;100390.88;24610;1336;3026783;-74
2022/10/07 17:32:59;;;;;;;9.00;4.20;;;;;;;16.24;50.50;100397.25;24580;1340;3027168;-66
2022/10/07 17:35:31;;;;;;;9.00;4.40;;;;;;;16.18;50.57;100394.30;24635;1327;3027843;-76
2022/10/07 17:38:01;;;;;;;13.10;4.80;;;;;;;16.18;50.54;100392.77;24623;1343;3028554;-66
2022/10/07 17:40:30;;;;;;;8.60;4.30;;;;;;;16.12;50.81;100399.84;24583;1340;3029178;-71
2022/10/07 17:43:05;;;;;;;12.80;4.40;;;;;;;16.08;50.94;100397.42;24627;1333;3025117;-72
2022/10/07 17:45:35;;;;;;;14.20;5.10;;;;;;;16.06;50.95;100395.51;24707;1335;3053300;-69
2022/10/07 17:48:04;;;;;;;7.00;4.20;;;;;;;16.02;51.27;100400.02;24766;1330;3027579;-66
2022/10/07 17:50:38;;;;;;;8.90;4.40;;;;;;;16.01;50.95;100398.16;24585;1337;3028100;-68
2022/10/07 17:53:07;;;;;;;6.50;4.20;;;;;;;15.98;51.39;100394.48;24521;1327;3026115;-68
2022/10/07 17:55:36;;;;;;;9.40;4.80;;;;;;;15.93;51.63;100394.84;24531;1330;3028373;-68
2022/10/07 17:58:06;;;;;;;11.70;5.20;;;;;;;15.91;51.51;100394.77;24542;1337;3068591;-70
2022/10/07 18:00:36;;;;;;;9.40;4.70;;;;;;;15.86;51.81;100389.95;24541;1340;3027902;-70
2022/10/07 18:03:05;;;;;;;12.10;5.10;;;;;;;15.85;51.64;100390.23;24585;1337;3028449;-69
2022/10/07 18:05:34;;;;;;;10.80;4.60;;;;;;;15.80;52.17;100389.83;24644;1337;3026342;-68
2022/10/07 18:08:05;;;;;;;10.50;5.60;;;;;;;15.76;52.30;100388.83;24635;1340;3049981;-67
2022/10/07 18:10:36;;;;;;;10.20;5.90;;;;;;;15.69;52.69;100388.27;24666;1331;3027028;-67
2022/10/07 18:16:24;;;;;;;12.90;6.10;;;;;;;15.61;52.89;100388.44;24726;1328;3053699;-70
2022/10/07 18:18:54;;;;;;;16.70;7.30;;;;;;;15.56;53.05;100391.83;24577;1336;3026171;-64
2022/10/07 18:21:23;;;;;;;18.00;6.80;;;;;;;15.54;52.94;100394.90;24553;1323;3054276;-72
2022/10/07 18:23:56;;;;;;;17.00;7.60;;;;;;;15.50;53.13;100396.25;24630;1329;3029473;-70
2022/10/07 18:26:50;;;;;;;19.60;7.30;;;;;;;15.44;53.42;100392.21;24437;1332;3051046;-66
2022/10/07 18:29:20;;;;;;;12.90;6.60;;;;;;;15.40;53.53;100390.00;24540;1328;3027697;-71
2022/10/07 18:31:49;;;;;;;14.40;6.90;;;;;;;15.40;53.40;100392.48;24485;1337;3054382;-69
2022/10/07 18:34:18;;;;;;;11.00;6.40;;;;;;;15.39;53.33;100394.13;24489;1336;3028866;-67
2022/10/07 18:36:47;;;;;;;13.90;6.40;;;;;;;15.35;53.53;100395.81;24484;1329;3053591;-71
2022/10/07 18:39:16;;;;;;;14.10;6.40;;;;;;;15.34;53.38;100397.30;24487;1329;3037880;-70
2022/10/07 18:41:45;;;;;;;11.70;6.50;;;;;;;15.31;53.91;100395.20;24461;1322;3055918;-67
2022/10/07 18:44:14;;;;;;;13.80;6.30;;;;;;;15.27;54.11;100400.26;24538;1329;3026261;-69
2022/10/07 18:46:43;;;;;;;12.70;6.10;;;;;;;15.23;53.95;100401.70;24518;1336;3048076;-70
2022/10/07 18:49:17;;;;;;;10.90;6.10;;;;;;;15.20;54.22;100403.82;24495;1340;3058487;-69
2022/10/07 18:51:49;;;;;;;9.90;5.40;;;;;;;15.20;54.23;100402.62;24491;1337;3027433;-68
2022/10/07 18:54:18;;;;;;;11.50;5.40;;;;;;;15.19;53.95;100403.16;24558;1328;3025614;-69
2022/10/07 18:56:48;;;;;;;7.90;4.70;;;;;;;15.17;53.99;100403.66;24540;1330;3025212;-70
2022/10/07 18:59:20;;;;;;;6.60;4.30;;;;;;;15.17;53.95;100404.54;24512;1336;3026619;-65
2022/10/07 19:01:51;;;;;;;11.20;4.20;;;;;;;15.14;53.97;100402.30;24491;1337;3027026;-68
2022/10/07 19:04:20;;;;;;;7.60;4.10;;;;;;;15.09;54.13;100404.20;24524;1337;3026588;-68
2022/10/07 19:06:49;;;;;;;9.50;3.80;;;;;;;15.05;54.22;100401.98;24450;1332;3051933;-68
2022/10/07 19:09:19;;;;;;;8.20;3.50;;;;;;;15.02;54.21;100401.98;24515;1330;3026166;-69
2022/10/07 19:11:49;;;;;;;8.30;3.70;;;;;;;14.98;54.34;100402.44;24496;1336;3049602;-67
2022/10/07 19:14:18;;;;;;;7.50;3.60;;;;;;;14.94;54.29;100404.08;24523;1335;3025655;-70
2022/10/07 19:16:48;;;;;;;10.40;3.70;;;;;;;14.90;54.39;100402.23;24476;1336;3052662;-66
2022/10/07 19:19:18;;;;;;;6.10;3.50;;;;;;;14.86;54.31;100402.09;24493;1340;3027326;-69
2022/10/07 19:21:50;;;;;;;5.80;3.30;;;;;;;14.86;54.26;100401.27;24568;1336;3052198;-67
2022/10/07 19:24:19;;;;;;;6.10;3.60;;;;;;;14.81;54.36;100402.45;24499;1337;3027319;-67
2022/10/07 19:26:52;;;;;;;7.20;3.30;;;;;;;14.84;54.19;100402.28;24519;1340;3025450;-71
2022/10/07 19:29:26;;;;;;;5.60;3.30;;;;;;;14.77;54.15;100399.34;24533;1333;3052346;-68
2022/10/07 19:31:56;;;;;;;6.50;3.30;;;;;;;14.73;54.09;100400.27;24517;1336;3026695;-65
2022/10/07 19:34:25;;;;;;;5.30;3.10;;;;;;;14.70;54.10;100401.20;24445;1336;3050526;-65
2022/10/07 19:36:56;;;;;;;7.10;3.40;;;;;;;14.71;54.02;100404.33;24551;1328;3028504;-70
2022/10/07 19:39:25;;;;;;;6.10;3.30;;;;;;;14.67;54.32;100407.71;24511;1329;3052030;-70
2022/10/07 19:41:55;;;;;;;8.80;3.60;;;;;;;14.63;54.36;100406.37;24513;1336;3027222;-65
2022/10/07 19:44:24;;;;;;;7.30;4.00;;;;;;;14.60;54.36;100402.16;24541;1337;3029294;-70
2022/10/07 19:46:53;;;;;;;7.10;4.10;;;;;;;14.60;54.28;100407.08;24485;1337;3027070;-65
2022/10/07 19:49:22;;;;;;;8.80;3.70;;;;;;;14.57;54.41;100405.70;24490;1336;3051919;-67
2022/10/07 19:51:52;;;;;;;8.40;4.20;;;;;;;14.54;54.46;100406.77;24510;1332;3027267;-65
2022/10/07 19:54:22;;;;;;;6.80;4.10;;;;;;;14.52;54.44;100406.17;24430;1343;3053796;-69
2022/10/07 19:56:51;;;;;;;10.60;4.30;;;;;;;14.49;54.55;100403.36;24514;1336;3027002;-67
2022/10/07 19:59:20;;;;;;;8.30;4.20;;;;;;;14.48;54.40;100407.48;24541;1327;3027211;-69
2022/10/07 20:01:50;;;;;;;8.90;4.20;;;;;;;14.47;54.18;100408.92;24515;1337;3053626;-68
2022/10/07 20:04:19;;;;;;;10.10;4.40;;;;;;;14.46;54.12;100402.64;24495;1328;3029387;-69
2022/10/07 20:06:50;;;;;;;9.10;4.30;;;;;;;14.41;54.43;100408.27;24533;1340;3029033;-68
2022/10/07 20:09:19;;;;;;;12.60;4.80;;;;;;;14.39;54.56;100404.87;24528;1327;3026030;-67
2022/10/07 20:11:55;;;;;;;8.10;3.70;;;;;;;14.35;54.74;100404.71;24467;1333;3050691;-69
2022/10/07 20:14:24;;;;;;;9.10;3.90;;;;;;;14.35;54.75;100412.87;24503;1327;3029792;-72
2022/10/07 20:16:54;;;;;;;8.90;3.70;;;;;;;14.32;54.61;100414.44;24515;1335;3026094;-67
2022/10/07 20:19:24;;;;;;;8.40;3.70;;;;;;;14.31;54.74;100412.08;24459;1328;3050679;-68
2022/10/07 20:21:54;;;;;;;6.70;3.10;;;;;;;14.25;55.12;100425.40;24488;1327;3029038;-65
2022/10/07 20:24:25;;;;;;;7.30;3.20;;;;;;;14.22;55.09;100426.32;24458;1343;3029866;-64
2022/10/07 20:26:54;;;;;;;10.60;3.00;;;;;;;14.22;54.94;100426.69;24555;1336;3028744;-69
2022/10/07 20:29:23;;;;;;;6.60;2.90;;;;;;;14.22;55.21;100422.27;24536;1336;3027194;-65
2022/10/07 20:31:52;;;;;;;5.30;2.70;;;;;;;14.19;55.52;100424.02;24473;1338;3027668;-69
2022/10/07 20:34:24;;;;;;;11.30;3.40;;;;;;;14.16;55.39;100420.02;24467;1340;3068577;-69
2022/10/07 20:36:53;;;;;;;8.10;3.20;;;;;;;14.13;55.77;100419.45;24573;1340;3027126;-66
2022/10/07 20:42:24;;;;;;;6.30;3.10;;;;;;;14.04;56.45;100421.23;24491;1336;3069879;-68
2022/10/07 20:44:53;;;;;;;7.30;2.80;;;;;;;14.04;56.12;100426.02;24496;1329;3049692;-68
2022/10/07 20:47:23;;;;;;;6.10;3.00;;;;;;;14.04;56.26;100424.43;24535;1336;3028765;-67
2022/10/07 20:49:54;;;;;;;5.00;2.80;;;;;;;14.01;56.43;100423.67;24539;1340;3067453;-68
2022/10/07 20:52:25;;;;;;;7.60;3.80;;;;;;;14.00;56.45;100419.90;24464;1336;3028133;-69
2022/10/07 20:54:54;;;;;;;6.80;3.00;;;;;;;13.95;56.72;100422.12;24544;1336;3025797;-67
2022/10/07 20:57:26;;;;;;;5.40;2.70;;;;;;;13.93;56.46;100424.70;24518;1329;3028150;-67
2022/10/07 20:59:55;;;;;;;7.80;3.20;;;;;;;13.92;56.57;100428.27;24529;1340;3027168;-70
2022/10/07 21:02:27;;;;;;;4.90;2.50;;;;;;;13.86;56.88;100427.95;24496;1329;3029203;-68
2022/10/07 21:04:58;;;;;;;4.10;2.40;;;;;;;13.85;56.89;100428.55;24482;1336;3053815;-68
2022/10/07 21:07:28;;;;;;;4.40;2.50;;;;;;;13.84;56.96;100430.51;24571;1333;3025868;-66
2022/10/07 21:09:58;;;;;;;5.10;2.40;;;;;;;13.83;56.92;100427.75;24488;1330;3026466;-64
2022/10/07 21:12:27;;;;;;;6.30;2.90;;;;;;;13.80;57.21;100429.15;24526;1322;3028430;-66
2022/10/07 21:14:59;;;;;;;4.40;2.40;;;;;;;13.75;57.28;100435.80;24644;1335;3054250;-67
2022/10/07 21:17:28;;;;;;;7.00;3.00;;;;;;;13.71;57.51;100429.66;24545;1329;3027401;-68
2022/10/07 21:19:58;;;;;;;7.40;2.70;;;;;;;13.68;57.55;100431.10;24540;1333;3026349;-70
2022/10/07 21:22:27;;;;;;;5.30;2.40;;;;;;;13.68;57.47;100434.41;24547;1334;3026160;-69
2022/10/07 21:24:57;;;;;;;6.00;2.60;;;;;;;13.66;57.25;100432.06;24490;1318;3053122;-70
2022/10/07 21:27:26;;;;;;;4.20;2.10;;;;;;;13.63;57.65;100433.16;24610;1333;3027806;-70
2022/10/07 21:29:55;;;;;;;6.10;2.90;;;;;;;13.61;57.78;100437.14;24524;1333;3026328;-68
2022/10/07 21:32:24;;;;;;;5.70;2.50;;;;;;;13.58;58.03;100437.98;24615;1334;3051203;-65
2022/10/07 21:34:55;;;;;;;4.50;2.50;;;;;;;13.55;57.85;100438.70;24539;1326;3028032;-68
2022/10/07 21:37:25;;;;;;;5.40;2.60;;;;;;;13.49;58.45;100437.11;24585;1334;3053584;-71
2022/10/07 21:39:54;;;;;;;4.70;2.30;;;;;;;13.46;58.44;100435.16;24572;1333;3029524;-70
2022/10/07 21:42:23;;;;;;;4.80;2.80;;;;;;;13.41;58.81;100434.59;24558;1326;3027924;-71
2022/10/07 21:44:52;;;;;;;5.30;2.50;;;;;;;13.39;58.70;100435.20;24646;1326;3053862;-67
2022/10/07 21:47:21;;;;;;;5.30;2.30;;;;;;;13.39;58.66;100436.27;24591;1333;3024885;-67
2022/10/07 21:49:51;;;;;;;4.50;2.30;;;;;;;13.37;58.48;100433.55;24610;1330;3026738;-65
2022/10/07 21:52:20;;;;;;;5.10;2.40;;;;;;;13.35;58.54;100430.85;24544;1333;3026925;-63
2022/10/07 21:54:51;;;;;;;4.20;2.40;;;;;;;13.33;58.44;100432.34;24621;1330;3052619;-65
2022/10/07 21:57:20;;;;;;;10.20;2.90;;;;;;;13.32;58.39;100432.25;24536;1334;3026043;-66
2022/10/07 21:59:52;;;;;;;5.30;2.80;;;;;;;13.25;58.65;100429.63;24484;1334;3029554;-64
2022/10/07 22:02:22;;;;;;;5.50;2.50;;;;;;;13.22;58.68;100430.83;24577;1326;3029344;-65
2022/10/07 22:04:51;;;;;;;4.20;2.20;;;;;;;13.21;59.06;100427.41;24498;1328;3026514;-67
2022/10/07 22:10:09;;;;;;;4.60;2.40;;;;;;;13.09;58.97;100428.21;24540;1326;3052781;-65
2022/10/07 22:12:39;;;;;;;7.70;2.40;;;;;;;13.09;58.95;100429.83;24524;1339;3026282;-66
2022/10/07 22:15:09;;;;;;;4.80;2.60;;;;;;;13.04;59.32;100435.23;24540;1330;3028769;-65
2022/10/07 22:17:41;;;;;;;5.20;2.50;;;;;;;13.02;59.58;100433.58;24561;1330;3027513;-66
2022/10/07 22:20:10;;;;;;;5.80;2.10;;;;;;;13.01;59.31;100434.30;24564;1320;3025793;-64
2022/10/07 22:22:39;;;;;;;5.20;2.30;;;;;;;12.98;59.57;100436.43;24531;1333;3051807;-64
2022/10/07 22:25:08;;;;;;;7.60;2.50;;;;;;;12.96;59.41;100430.86;24476;1326;3028280;-64
2022/10/07 22:27:37;;;;;;;5.80;2.30;;;;;;;12.95;59.49;100430.08;24562;1334;3052349;-66
2022/10/07 22:30:08;;;;;;;5.00;2.70;;;;;;;12.93;59.45;100430.55;24565;1333;3026935;-68
2022/10/07 22:32:37;;;;;;;5.30;2.50;;;;;;;12.89;59.78;100433.56;24529;1331;3052022;-66
2022/10/07 22:37:57;;;;;;;6.00;2.40;;;;;;;12.75;60.58;100430.95;24520;1335;3058317;-64
2022/10/07 22:40:27;;;;;;;5.00;2.60;;;;;;;12.72;60.62;100429.38;24530;1333;3026058;-64
2022/10/07 22:42:57;;;;;;;7.70;2.80;;;;;;;12.73;60.48;100427.75;24451;1334;3028749;-66
2022/10/07 22:45:27;;;;;;;4.60;2.40;;;;;;;12.75;59.93;100429.25;24492;1334;3025670;-64
2022/10/07 22:47:56;;;;;;;8.90;2.40;;;;;;;12.75;59.91;100428.35;24494;1334;3052633;-65
2022/10/07 22:50:25;;;;;;;4.20;2.20;;;;;;;12.75;59.94;100432.03;24525;1326;3025021;-64
2022/10/07 22:52:55;;;;;;;6.20;2.80;;;;;;;12.72;60.33;100430.98;24520;1335;3056568;-63
2022/10/07 22:55:24;;;;;;;4.40;2.30;;;;;;;12.71;60.20;100429.27;24591;1333;3024907;-68
2022/10/07 22:57:53;;;;;;;5.60;2.30;;;;;;;12.70;60.28;100423.38;24603;1334;3027367;-66
2022/10/07 23:00:22;;;;;;;6.10;2.90;;;;;;;12.68;60.73;100421.02;24460;1331;3026521;-65
2022/10/07 23:02:52;;;;;;;5.70;2.40;;;;;;;12.61;60.77;100419.98;24416;1330;3053847;-68
2022/10/07 23:05:21;;;;;;;7.50;2.70;;;;;;;12.62;60.43;100421.33;24470;1334;3026220;-66
2022/10/07 23:07:50;;;;;;;4.80;2.00;;;;;;;12.59;60.66;100421.13;24573;1334;3027591;-66
2022/10/07 23:10:19;;;;;;;4.20;2.30;;;;;;;12.57;60.79;100421.41;24448;1334;3053260;-64
2022/10/07 23:12:49;;;;;;;5.90;2.50;;;;;;;12.52;61.16;100418.84;24435;1341;3027106;-64
2022/10/07 23:15:19;;;;;;;5.20;2.60;;;;;;;12.50;61.11;100414.41;24559;1328;3027032;-65
2022/10/07 23:17:48;;;;;;;4.90;2.20;;;;;;;12.48;61.11;100413.09;24467;1334;3052550;-64
2022/10/07 23:20:18;;;;;;;6.50;2.60;;;;;;;12.45;61.30;100412.05;24501;1326;3028707;-63
2022/10/07 23:22:50;;;;;;;4.50;2.40;;;;;;;12.40;61.92;100414.39;24460;1333;3057063;-66
2022/10/07 23:25:19;;;;;;;4.90;2.30;;;;;;;12.36;61.89;100416.34;24432;1327;3029702;-65
2022/10/07 23:27:48;;;;;;;5.50;2.80;;;;;;;12.34;62.11;100411.72;24493;1332;3050349;-65
2022/10/07 23:30:17;;;;;;;4.70;2.80;;;;;;;12.30;62.08;100411.58;24413;1337;3029345;-64
2022/10/07 23:32:47;;;;;;;4.90;2.50;;;;;;;12.28;61.95;100411.01;24496;1332;3028313;-66
2022/10/07 23:35:16;;;;;;;6.20;2.80;;;;;;;12.26;62.39;100404.95;24499;1342;3027399;-65
2022/10/07 23:37:45;;;;;;;5.50;2.90;;;;;;;12.24;62.28;100405.23;24428;1333;3055885;-64
2022/10/07 23:40:14;;;;;;;5.30;2.20;;;;;;;12.20;62.47;100398.23;24424;1333;3026641;-65
2022/10/07 23:42:45;;;;;;;4.20;2.60;;;;;;;12.16;62.69;100395.44;24433;1336;3025841;-63
2022/10/07 23:45:14;;;;;;;4.70;2.60;;;;;;;12.16;62.31;100398.98;24439;1334;3026870;-67
2022/10/07 23:47:44;;;;;;;7.70;3.20;;;;;;;12.15;62.72;100398.83;24477;1336;3026833;-65
2022/10/07 23:50:13;;;;;;;4.00;2.30;;;;;;;12.13;62.42;100396.30;24422;1343;3028660;-65
2022/10/07 23:52:43;;;;;;;7.50;2.50;;;;;;;12.07;63.36;100394.67;24457;1332;3028158;-64
2022/10/07 23:55:12;;;;;;;5.50;2.20;;;;;;;12.05;63.12;100394.46;24579;1333;3025794;-66
2022/10/07 23:57:41;;;;;;;9.00;2.80;;;;;;;12.04;63.05;100393.81;24442;1339;3049251;-63
